KGRF

Gray AAF Airport

Fort Lewis/Tacoma, Washington, USA
METAR KGRF 150258Z 34004KT 3SM HZ FU CLR 27/15 A2982 RMK AO2A SLP100 T02700153 57007 $
Observed Flight Rules
Aug-15 @ 02:58 UTC (38 minutes ago) Marginal Visual Flight Rules
Wind Visibility Clouds Conditions
340° at 4 knots 3 miles
  • Clear skies
  • Haze
  • Smoke
Temperatures Readings
Current 27°C / 81°F
Dewpoint 15°C / 59°F
Humidity 48%
Altimeter 29.82" Hg
Pressure 1010 hPa
Elevation 92
METAR KGRF 150258Z 34004KT 3SM HZ FU CLR 27/15 A2982 RMK AO2A SLP100 T02700153 57007 $
Observed Flight Rules
Aug-15 @ 02:58 UTC
(38 minutes ago)
MVFR
Wind Visibility
340° at 4 knots 3 miles
Clouds
  • Clear skies
Conditions
  • Haze
  • Smoke
Temperature Dewpoint
27°C / 81°F 15°C / 59°F
Humidity Altimeter Pressure
48% 29.82" Hg 1010 hPa